createdAt,value
2023-03-20T00:00:12.783Z,1011.70
2023-03-20T00:01:12.780Z,1011.72
2023-03-20T00:02:12.767Z,1011.70
2023-03-20T00:03:12.765Z,1011.73
2023-03-20T00:04:12.934Z,1011.73
2023-03-20T00:05:12.754Z,1011.76
2023-03-20T00:06:12.767Z,1011.74
2023-03-20T00:07:12.740Z,1011.72
2023-03-20T00:08:12.804Z,1011.74
2023-03-20T00:09:12.720Z,1011.76
2023-03-20T00:10:12.720Z,1011.79
2023-03-20T00:11:12.715Z,1011.78
2023-03-20T00:12:12.713Z,1011.78
2023-03-20T00:13:12.702Z,1011.80
2023-03-20T00:14:12.687Z,1011.77
2023-03-20T00:15:12.683Z,1011.82
2023-03-20T00:16:12.711Z,1011.83
2023-03-20T00:17:12.678Z,1011.85
2023-03-20T00:18:12.657Z,1011.86
2023-03-20T00:19:12.659Z,1011.88
2023-03-20T00:20:12.656Z,1011.88
2023-03-20T00:21:12.643Z,1011.94
2023-03-20T00:22:12.650Z,1011.93
2023-03-20T00:23:12.637Z,1011.92
2023-03-20T00:24:12.624Z,1011.95
2023-03-20T00:25:12.638Z,1011.94
2023-03-20T00:26:12.609Z,1011.98
2023-03-20T00:27:12.606Z,1011.98
2023-03-20T00:28:12.595Z,1011.99
2023-03-20T00:29:12.592Z,1011.98
2023-03-20T00:30:12.582Z,1011.97
2023-03-20T00:31:12.578Z,1012.03
2023-03-20T00:32:12.566Z,1012.03
2023-03-20T00:33:12.663Z,1012.07
2023-03-20T00:34:12.559Z,1012.03
2023-03-20T00:35:12.555Z,1012.05
2023-03-20T00:36:12.600Z,1012.04
2023-03-20T00:37:12.562Z,1012.06
2023-03-20T00:38:12.535Z,1012.04
2023-03-20T00:39:12.521Z,1012.06
2023-03-20T00:40:12.519Z,1012.03
2023-03-20T00:41:12.517Z,1012.06
2023-03-20T00:42:12.503Z,1012.07
2023-03-20T00:43:12.499Z,1012.10
2023-03-20T00:44:12.499Z,1012.10
2023-03-20T00:45:12.491Z,1012.11
2023-03-20T00:46:12.470Z,1012.11
2023-03-20T00:47:12.475Z,1012.17
2023-03-20T00:48:12.468Z,1012.15
2023-03-20T00:49:12.457Z,1012.15
2023-03-20T00:50:12.457Z,1012.16
2023-03-20T00:51:12.468Z,1012.18
2023-03-20T00:52:12.434Z,1012.19
2023-03-20T00:53:12.450Z,1012.20
2023-03-20T00:54:12.425Z,1012.24
2023-03-20T00:55:12.425Z,1012.18
2023-03-20T00:56:12.414Z,1012.22
2023-03-20T00:57:12.402Z,1012.22
2023-03-20T00:58:12.407Z,1012.21
2023-03-20T00:59:12.388Z,1012.22
2023-03-20T01:00:12.376Z,1012.20
2023-03-20T01:01:12.458Z,1012.22
2023-03-20T01:02:12.424Z,1012.24
2023-03-20T01:03:12.368Z,1012.24
2023-03-20T01:04:12.353Z,1012.26
2023-03-20T01:05:12.355Z,1012.22
2023-03-20T01:06:12.349Z,1012.27
2023-03-20T01:07:12.340Z,1012.21
2023-03-20T01:08:12.331Z,1012.20
2023-03-20T01:09:12.333Z,1012.20
2023-03-20T01:10:12.322Z,1012.26
2023-03-20T01:11:12.321Z,1012.19
2023-03-20T01:12:12.310Z,1012.26
2023-03-20T01:13:12.297Z,1012.28
2023-03-20T01:14:12.289Z,1012.30
2023-03-20T01:15:12.286Z,1012.31
2023-03-20T01:16:12.296Z,1012.32
2023-03-20T01:17:13.578Z,1012.34
2023-03-20T01:18:12.268Z,1012.35
2023-03-20T01:19:12.253Z,1012.40
2023-03-20T01:20:12.252Z,1012.39
2023-03-20T01:21:12.239Z,1012.39
2023-03-20T01:22:12.231Z,1012.35
2023-03-20T01:23:12.248Z,1012.39
2023-03-20T01:24:12.233Z,1012.37
2023-03-20T01:25:12.216Z,1012.38
2023-03-20T01:26:12.205Z,1012.39
2023-03-20T01:27:12.201Z,1012.38
2023-03-20T01:28:12.188Z,1012.37
2023-03-20T01:29:12.184Z,1012.41
2023-03-20T01:30:12.172Z,1012.43
2023-03-20T01:31:12.174Z,1012.39
2023-03-20T01:32:12.241Z,1012.42
2023-03-20T01:33:12.218Z,1012.40
2023-03-20T01:34:12.171Z,1012.36
2023-03-20T01:35:12.151Z,1012.37
2023-03-20T01:36:12.151Z,1012.35
2023-03-20T01:37:12.137Z,1012.35
2023-03-20T01:38:12.121Z,1012.34
2023-03-20T01:39:12.113Z,1012.35
2023-03-20T01:40:12.107Z,1012.38
2023-03-20T01:41:12.097Z,1012.34
2023-03-20T01:42:12.099Z,1012.35
2023-03-20T01:43:12.089Z,1012.33
2023-03-20T01:44:12.072Z,1012.31
2023-03-20T01:45:12.073Z,1012.31
2023-03-20T01:46:12.199Z,1012.28
2023-03-20T01:47:12.054Z,1012.24
2023-03-20T01:48:12.059Z,1012.25
2023-03-20T01:49:12.052Z,1012.20
2023-03-20T01:50:12.037Z,1012.21
2023-03-20T01:51:12.047Z,1012.18
2023-03-20T01:52:12.022Z,1012.19
2023-03-20T01:53:12.032Z,1012.15
2023-03-20T01:54:12.014Z,1012.16
2023-03-20T01:55:12.005Z,1012.16
2023-03-20T01:56:11.992Z,1012.17
2023-03-20T01:57:11.992Z,1012.21
2023-03-20T01:58:11.985Z,1012.24
2023-03-20T01:59:11.998Z,1012.15
2023-03-20T02:00:11.985Z,1012.16
2023-03-20T02:01:12.027Z,1012.16
2023-03-20T02:02:11.957Z,1012.11
2023-03-20T02:03:11.947Z,1012.07
2023-03-20T02:04:11.949Z,1012.04
2023-03-20T02:05:11.996Z,1012.02
2023-03-20T02:06:11.937Z,1011.99
2023-03-20T02:07:11.931Z,1012.02
2023-03-20T02:08:11.928Z,1012.01
2023-03-20T02:09:11.904Z,1012.01
2023-03-20T02:10:11.897Z,1012.02
2023-03-20T02:11:11.904Z,1012.03
2023-03-20T02:12:11.894Z,1012.01
2023-03-20T02:13:11.873Z,1011.99
2023-03-20T02:14:11.870Z,1011.98
2023-03-20T02:15:11.869Z,1011.96
2023-03-20T02:16:11.864Z,1011.96
2023-03-20T02:17:11.849Z,1011.97
2023-03-20T02:18:11.852Z,1011.94
2023-03-20T02:19:11.839Z,1011.97
2023-03-20T02:20:11.829Z,1012.02
2023-03-20T02:21:11.834Z,1012.01
2023-03-20T02:22:11.824Z,1012.04
2023-03-20T02:23:11.810Z,1012.03
2023-03-20T02:24:11.809Z,1012.08
2023-03-20T02:25:11.820Z,1012.03
2023-03-20T02:26:11.785Z,1012.05
2023-03-20T02:27:11.780Z,1012.11
2023-03-20T02:28:11.774Z,1012.05
2023-03-20T02:29:11.766Z,1012.08
2023-03-20T02:30:11.756Z,1012.13
2023-03-20T02:31:11.844Z,1012.13
2023-03-20T02:32:11.759Z,1012.11
2023-03-20T02:33:11.853Z,1012.04
2023-03-20T02:34:11.728Z,1012.05
2023-03-20T02:35:11.726Z,1012.04
2023-03-20T02:36:11.758Z,1012.04
2023-03-20T02:37:11.727Z,1012.03
2023-03-20T02:38:11.717Z,1012.10
2023-03-20T02:39:11.703Z,1012.11
2023-03-20T02:40:11.702Z,1012.13
2023-03-20T02:41:11.704Z,1012.20
2023-03-20T02:42:11.696Z,1012.14
2023-03-20T02:43:11.675Z,1012.18
2023-03-20T02:44:11.675Z,1012.13
2023-03-20T02:45:11.679Z,1012.10
2023-03-20T02:46:11.733Z,1012.07
2023-03-20T02:47:11.642Z,1012.11
2023-03-20T02:48:11.640Z,1012.13
2023-03-20T02:49:11.634Z,1012.12
2023-03-20T02:50:11.631Z,1012.10
2023-03-20T02:51:11.616Z,1012.12
2023-03-20T02:52:11.608Z,1012.12
2023-03-20T02:53:11.605Z,1012.10
2023-03-20T02:54:11.600Z,1012.09
2023-03-20T02:55:11.601Z,1012.06
2023-03-20T02:56:11.585Z,1012.02
2023-03-20T02:57:11.576Z,1011.98
2023-03-20T02:58:11.605Z,1011.93
2023-03-20T02:59:11.559Z,1011.95
2023-03-20T03:00:11.559Z,1011.98
2023-03-20T03:01:11.595Z,1011.95
2023-03-20T03:02:11.557Z,1012.02
2023-03-20T03:03:11.565Z,1012.04
2023-03-20T03:04:11.539Z,1012.09
2023-03-20T03:05:11.528Z,1012.07
2023-03-20T03:06:11.515Z,1012.08
2023-03-20T03:07:11.506Z,1012.11
2023-03-20T03:08:11.500Z,1012.07
2023-03-20T03:09:11.495Z,1012.04
2023-03-20T03:10:11.504Z,1012.01
2023-03-20T03:11:11.488Z,1011.96
2023-03-20T03:12:11.497Z,1011.90
2023-03-20T03:13:11.487Z,1011.87
2023-03-20T03:14:11.476Z,1011.87
2023-03-20T03:15:11.457Z,1011.87
2023-03-20T03:16:11.519Z,1011.89
2023-03-20T03:17:11.450Z,1011.92
2023-03-20T03:18:11.448Z,1011.96
2023-03-20T03:19:11.435Z,1012.01
2023-03-20T03:20:11.423Z,1012.01
2023-03-20T03:21:11.414Z,1012.04
2023-03-20T03:22:11.406Z,1012.10
2023-03-20T03:23:11.401Z,1012.14
2023-03-20T03:24:11.412Z,1012.16
2023-03-20T03:25:11.386Z,1012.13
2023-03-20T03:26:11.388Z,1012.10
2023-03-20T03:27:11.377Z,1012.11
2023-03-20T03:28:11.378Z,1012.12
2023-03-20T03:29:11.361Z,1012.11
2023-03-20T03:30:11.354Z,1012.12
2023-03-20T03:31:11.414Z,1012.14
2023-03-20T03:32:11.332Z,1012.11
2023-03-20T03:33:11.359Z,1012.12
2023-03-20T03:34:11.325Z,1012.07
2023-03-20T03:35:11.315Z,1012.20
2023-03-20T03:36:11.414Z,1012.19
2023-03-20T03:37:11.300Z,1012.18
2023-03-20T03:38:11.301Z,1012.19
2023-03-20T03:39:11.299Z,1012.16
2023-03-20T03:40:11.305Z,1012.13
2023-03-20T03:41:11.286Z,1012.17
2023-03-20T03:42:11.263Z,1012.19
2023-03-20T03:43:11.260Z,1012.24
2023-03-20T03:44:11.263Z,1012.31
2023-03-20T03:45:11.262Z,1012.30
2023-03-20T03:46:11.301Z,1012.34
2023-03-20T03:47:11.244Z,1012.34
2023-03-20T03:48:11.228Z,1012.37
2023-03-20T03:49:11.220Z,1012.36
2023-03-20T03:50:11.220Z,1012.42
2023-03-20T03:51:11.220Z,1012.38
2023-03-20T03:52:11.202Z,1012.34
2023-03-20T03:53:11.205Z,1012.30
2023-03-20T03:54:11.187Z,1012.26
2023-03-20T03:55:11.185Z,1012.20
2023-03-20T03:56:11.219Z,1012.12
2023-03-20T03:57:11.179Z,1012.05
2023-03-20T03:58:11.161Z,1011.97
2023-03-20T03:59:11.153Z,1011.96
2023-03-20T04:00:11.168Z,1011.97
2023-03-20T04:01:11.148Z,1011.98
2023-03-20T04:02:11.210Z,1011.98
2023-03-20T04:03:11.141Z,1011.93
2023-03-20T04:04:11.175Z,1011.95
2023-03-20T04:05:11.120Z,1012.00
2023-03-20T04:06:11.113Z,1012.01
2023-03-20T04:07:11.109Z,1012.03
2023-03-20T04:08:11.103Z,1012.02
2023-03-20T04:09:11.097Z,1012.02
2023-03-20T04:10:11.083Z,1012.05
2023-03-20T04:11:11.078Z,1012.06
2023-03-20T04:12:11.065Z,1012.05
2023-03-20T04:13:11.084Z,1012.05
2023-03-20T04:14:11.053Z,1012.04
2023-03-20T04:15:11.054Z,1011.98
2023-03-20T04:16:11.056Z,1011.92
2023-03-20T04:17:11.035Z,1011.96
2023-03-20T04:18:11.029Z,1011.96
2023-03-20T04:19:11.023Z,1012.02
2023-03-20T04:20:11.017Z,1012.12
2023-03-20T04:21:11.009Z,1012.10
2023-03-20T04:22:11.001Z,1012.19
2023-03-20T04:23:11.004Z,1012.20
2023-03-20T04:24:11.003Z,1012.25
2023-03-20T04:25:10.991Z,1012.27
2023-03-20T04:26:10.979Z,1012.27
2023-03-20T04:27:10.965Z,1012.25
2023-03-20T04:28:10.962Z,1012.19
2023-03-20T04:29:10.945Z,1012.21
2023-03-20T04:30:10.949Z,1012.17
2023-03-20T04:31:10.945Z,1012.19
2023-03-20T04:32:10.928Z,1012.23
2023-03-20T04:33:10.962Z,1012.26
2023-03-20T04:34:10.915Z,1012.27
2023-03-20T04:35:10.905Z,1012.27
2023-03-20T04:36:11.005Z,1012.26
2023-03-20T04:37:10.913Z,1012.32
2023-03-20T04:38:10.890Z,1012.30
2023-03-20T04:39:10.876Z,1012.31
2023-03-20T04:40:10.882Z,1012.29
2023-03-20T04:41:10.866Z,1012.32
2023-03-20T04:42:10.862Z,1012.29
2023-03-20T04:43:10.844Z,1012.30
2023-03-20T04:44:10.847Z,1012.26
2023-03-20T04:45:10.844Z,1012.28
2023-03-20T04:46:10.946Z,1012.27
2023-03-20T04:47:10.816Z,1012.32
2023-03-20T04:48:10.841Z,1012.29
2023-03-20T04:49:10.811Z,1012.29
2023-03-20T04:50:10.803Z,1012.30
2023-03-20T04:51:10.792Z,1012.23
2023-03-20T04:52:10.794Z,1012.20
2023-03-20T04:53:10.810Z,1012.20
2023-03-20T04:54:10.807Z,1012.17
2023-03-20T04:55:10.774Z,1012.15
2023-03-20T04:56:10.757Z,1012.17
2023-03-20T04:57:10.757Z,1012.18
2023-03-20T04:58:10.745Z,1012.17
2023-03-20T04:59:10.747Z,1012.18
2023-03-20T05:00:10.731Z,1012.22
2023-03-20T05:01:10.774Z,1012.19
2023-03-20T05:02:10.716Z,1012.17
2023-03-20T05:03:10.708Z,1012.18
2023-03-20T05:04:10.731Z,1012.14
2023-03-20T05:05:10.712Z,1012.08
2023-03-20T05:06:10.688Z,1012.07
2023-03-20T05:07:10.680Z,1012.06
2023-03-20T05:08:10.673Z,1012.04
2023-03-20T05:09:10.664Z,1012.03
2023-03-20T05:10:10.658Z,1012.00
2023-03-20T05:11:10.660Z,1012.07
2023-03-20T05:12:10.640Z,1012.01
2023-03-20T05:13:10.664Z,1012.03
2023-03-20T05:14:10.639Z,1012.05
2023-03-20T05:15:10.638Z,1012.00
2023-03-20T05:16:10.612Z,1011.97
2023-03-20T05:17:10.602Z,1011.96
2023-03-20T05:18:10.613Z,1011.96
2023-03-20T05:19:10.597Z,1011.93
2023-03-20T05:20:10.581Z,1011.96
2023-03-20T05:21:10.571Z,1011.95
2023-03-20T05:22:10.560Z,1011.96
2023-03-20T05:23:10.583Z,1011.96
2023-03-20T05:24:10.555Z,1011.98
2023-03-20T05:25:10.547Z,1012.00
2023-03-20T05:26:10.549Z,1012.02
2023-03-20T05:27:10.532Z,1012.04
2023-03-20T05:28:10.519Z,1012.02
2023-03-20T05:29:10.518Z,1011.98
2023-03-20T05:30:10.505Z,1012.02
2023-03-20T05:31:10.562Z,1011.97
2023-03-20T05:32:10.501Z,1011.98
2023-03-20T05:33:10.540Z,1011.93
2023-03-20T05:34:10.478Z,1011.91
2023-03-20T05:35:10.472Z,1011.89
2023-03-20T05:36:10.542Z,1011.89
2023-03-20T05:37:10.456Z,1011.84
2023-03-20T05:38:10.474Z,1011.80
2023-03-20T05:39:10.445Z,1011.81
2023-03-20T05:40:10.434Z,1011.80
2023-03-20T05:41:10.427Z,1011.84
2023-03-20T05:42:10.421Z,1011.85
2023-03-20T05:43:10.413Z,1011.83
2023-03-20T05:44:10.406Z,1011.84
2023-03-20T05:45:10.413Z,1011.85
2023-03-20T05:46:10.426Z,1011.85
2023-03-20T05:47:10.381Z,1011.85
2023-03-20T05:48:10.393Z,1011.91
2023-03-20T05:49:10.388Z,1011.92
2023-03-20T05:50:10.368Z,1011.91
2023-03-20T05:51:10.352Z,1011.95
2023-03-20T05:52:10.348Z,1011.98
2023-03-20T05:53:10.351Z,1011.98
2023-03-20T05:54:10.331Z,1011.97
2023-03-20T05:55:10.326Z,1011.95
2023-03-20T05:56:10.327Z,1011.97
2023-03-20T05:57:10.326Z,1011.97
2023-03-20T05:58:10.306Z,1011.98
2023-03-20T05:59:10.298Z,1011.98
2023-03-20T06:00:10.305Z,1012.03
2023-03-20T06:01:10.302Z,1011.98
2023-03-20T06:02:10.324Z,1011.96
2023-03-20T06:03:10.299Z,1011.97
2023-03-20T06:04:10.256Z,1011.98
2023-03-20T06:05:10.285Z,1011.99
2023-03-20T06:06:10.253Z,1012.03
2023-03-20T06:07:10.256Z,1012.03
2023-03-20T06:08:10.229Z,1012.04
2023-03-20T06:09:10.221Z,1012.05
2023-03-20T06:10:10.215Z,1012.06
2023-03-20T06:11:10.213Z,1012.08
2023-03-20T06:12:10.219Z,1012.14
2023-03-20T06:13:10.226Z,1012.14
2023-03-20T06:14:10.188Z,1012.09
2023-03-20T06:15:10.184Z,1012.15
2023-03-20T06:16:10.240Z,1012.20
2023-03-20T06:17:10.173Z,1012.19
2023-03-20T06:18:10.162Z,1012.24
2023-03-20T06:19:10.147Z,1012.23
2023-03-20T06:20:10.140Z,1012.25
2023-03-20T06:21:10.184Z,1012.20
2023-03-20T06:22:10.143Z,1012.24
2023-03-20T06:23:10.123Z,1012.23
2023-03-20T06:24:10.153Z,1012.25
2023-03-20T06:25:10.127Z,1012.24
2023-03-20T06:26:10.118Z,1012.25
2023-03-20T06:27:10.099Z,1012.26
2023-03-20T06:28:10.085Z,1012.24
2023-03-20T06:29:10.075Z,1012.27
2023-03-20T06:30:10.078Z,1012.25
2023-03-20T06:31:10.158Z,1012.23
2023-03-20T06:32:10.077Z,1012.24
2023-03-20T06:33:10.084Z,1012.20
2023-03-20T06:34:10.069Z,1012.23
2023-03-20T06:35:10.047Z,1012.20
2023-03-20T06:36:10.043Z,1012.18
2023-03-20T06:37:10.047Z,1012.19
2023-03-20T06:38:10.015Z,1012.18
2023-03-20T06:39:10.002Z,1012.17
2023-03-20T06:40:09.994Z,1012.16
2023-03-20T06:41:10.013Z,1012.14
2023-03-20T06:42:09.983Z,1012.14
2023-03-20T06:43:10.040Z,1012.14
2023-03-20T06:44:09.975Z,1012.12
2023-03-20T06:45:09.962Z,1012.10
2023-03-20T06:46:09.987Z,1012.12
2023-03-20T06:47:09.944Z,1012.14
2023-03-20T06:48:09.963Z,1012.11
2023-03-20T06:49:09.931Z,1012.11
2023-03-20T06:50:09.930Z,1012.10
2023-03-20T06:51:09.911Z,1012.18
2023-03-20T06:52:09.909Z,1012.15
2023-03-20T06:53:09.894Z,1012.21
2023-03-20T06:54:09.897Z,1012.22
2023-03-20T06:55:09.898Z,1012.25
2023-03-20T06:56:09.886Z,1012.28
2023-03-20T06:57:09.873Z,1012.32
2023-03-20T06:58:09.863Z,1012.34
2023-03-20T06:59:09.875Z,1012.35
2023-03-20T07:00:09.866Z,1012.35
2023-03-20T07:01:09.848Z,1012.33
2023-03-20T07:02:09.908Z,1012.34
2023-03-20T07:03:09.828Z,1012.31
2023-03-20T07:04:09.824Z,1012.31
2023-03-20T07:05:09.849Z,1012.30
2023-03-20T07:06:09.813Z,1012.29
2023-03-20T07:07:09.796Z,1012.28
2023-03-20T07:08:09.822Z,1012.30
2023-03-20T07:09:09.790Z,1012.28
2023-03-20T07:10:09.778Z,1012.31
2023-03-20T07:11:09.786Z,1012.31
2023-03-20T07:12:09.771Z,1012.38
2023-03-20T07:13:09.755Z,1012.38
2023-03-20T07:14:09.756Z,1012.36
2023-03-20T07:15:09.755Z,1012.41
2023-03-20T07:16:09.746Z,1012.50
2023-03-20T07:17:09.744Z,1012.45
2023-03-20T07:18:09.723Z,1012.48
2023-03-20T07:19:09.745Z,1012.44
2023-03-20T07:20:09.714Z,1012.44
2023-03-20T07:21:09.713Z,1012.40
2023-03-20T07:22:09.698Z,1012.40
2023-03-20T07:23:09.714Z,1012.38
2023-03-20T07:24:09.689Z,1012.42
2023-03-20T07:25:09.695Z,1012.44
2023-03-20T07:26:09.684Z,1012.46
2023-03-20T07:27:09.669Z,1012.47
2023-03-20T07:28:09.659Z,1012.51
2023-03-20T07:29:09.673Z,1012.56
2023-03-20T07:30:09.661Z,1012.52
2023-03-20T07:31:09.680Z,1012.53
2023-03-20T07:32:09.634Z,1012.55
2023-03-20T07:33:09.823Z,1012.56
2023-03-20T07:34:09.621Z,1012.61
2023-03-20T07:35:09.623Z,1012.64
2023-03-20T07:36:09.607Z,1012.72
2023-03-20T07:37:09.613Z,1012.66
2023-03-20T07:38:09.587Z,1012.68
2023-03-20T07:39:09.591Z,1012.70
2023-03-20T07:40:09.605Z,1012.72
2023-03-20T07:41:09.589Z,1012.79
2023-03-20T07:42:09.559Z,1012.79
2023-03-20T07:43:09.553Z,1012.81
2023-03-20T07:44:09.545Z,1012.84
2023-03-20T07:45:09.544Z,1012.82
2023-03-20T07:46:09.613Z,1012.89
2023-03-20T07:47:09.536Z,1012.87
2023-03-20T07:48:09.546Z,1012.87
2023-03-20T07:49:09.520Z,1012.91
2023-03-20T07:50:09.509Z,1012.92
2023-03-20T07:51:09.512Z,1012.90
2023-03-20T07:52:09.487Z,1012.90
2023-03-20T07:53:09.497Z,1012.89
2023-03-20T07:54:09.478Z,1012.93
2023-03-20T07:55:09.471Z,1012.87
2023-03-20T07:56:09.471Z,1012.94
2023-03-20T07:57:09.453Z,1012.96
2023-03-20T07:58:09.455Z,1012.99
2023-03-20T07:59:09.456Z,1012.97
2023-03-20T08:00:09.441Z,1012.99
2023-03-20T08:01:09.434Z,1012.99
2023-03-20T08:02:09.427Z,1012.96
2023-03-20T08:03:09.548Z,1012.97
2023-03-20T08:04:09.432Z,1012.99
2023-03-20T08:05:09.416Z,1012.97
2023-03-20T08:06:09.404Z,1012.96
2023-03-20T08:07:09.393Z,1012.94
2023-03-20T08:08:09.392Z,1012.97
2023-03-20T08:09:09.397Z,1012.89
2023-03-20T08:10:09.388Z,1012.91
2023-03-20T08:11:09.361Z,1012.94
2023-03-20T08:12:09.383Z,1012.94
2023-03-20T08:13:09.358Z,1012.93
2023-03-20T08:14:09.354Z,1012.97
2023-03-20T08:15:09.341Z,1013.00
2023-03-20T08:16:09.439Z,1013.02
2023-03-20T08:17:15.078Z,1013.08
2023-03-20T08:18:09.332Z,1013.06
2023-03-20T08:19:09.311Z,1013.06
2023-03-20T08:20:09.308Z,1013.03
2023-03-20T08:21:09.311Z,1013.06
2023-03-20T08:22:09.298Z,1013.10
2023-03-20T08:23:09.293Z,1013.15
2023-03-20T08:24:09.313Z,1013.12
2023-03-20T08:25:09.281Z,1013.14
2023-03-20T08:26:09.274Z,1013.17
2023-03-20T08:27:09.268Z,1013.18
2023-03-20T08:28:09.283Z,1013.21
2023-03-20T08:29:09.252Z,1013.22
2023-03-20T08:30:09.260Z,1013.26
2023-03-20T08:31:09.268Z,1013.26
2023-03-20T08:32:09.232Z,1013.25
2023-03-20T08:33:09.242Z,1013.26
2023-03-20T08:34:09.221Z,1013.22
2023-03-20T08:35:16.346Z,1013.24
2023-03-20T08:36:09.298Z,1013.22
2023-03-20T08:37:09.209Z,1013.20
2023-03-20T08:38:09.186Z,1013.22
2023-03-20T08:39:09.201Z,1013.26
2023-03-20T08:40:09.199Z,1013.28
2023-03-20T08:41:09.174Z,1013.29
2023-03-20T08:42:09.178Z,1013.28
2023-03-20T08:43:09.297Z,1013.26
2023-03-20T08:44:09.172Z,1013.28
2023-03-20T08:45:09.171Z,1013.28
2023-03-20T08:46:09.163Z,1013.26
2023-03-20T08:47:09.127Z,1013.26
2023-03-20T08:48:09.122Z,1013.31
2023-03-20T08:49:09.136Z,1013.28
2023-03-20T08:50:09.114Z,1013.31
2023-03-20T08:51:09.108Z,1013.30
2023-03-20T08:52:09.105Z,1013.32
2023-03-20T08:53:09.093Z,1013.29
2023-03-20T08:54:09.087Z,1013.26
2023-03-20T08:55:09.075Z,1013.26
2023-03-20T08:56:09.070Z,1013.27
2023-03-20T08:57:09.356Z,1013.28
2023-03-20T08:58:09.062Z,1013.28
2023-03-20T08:59:09.065Z,1013.27
2023-03-20T09:00:09.101Z,1013.28
2023-03-20T09:01:09.084Z,1013.26
2023-03-20T09:02:09.142Z,1013.32
2023-03-20T09:03:09.118Z,1013.29
2023-03-20T09:04:09.020Z,1013.30
2023-03-20T09:05:09.011Z,1013.30
2023-03-20T09:06:09.013Z,1013.29
2023-03-20T09:07:09.003Z,1013.30
2023-03-20T09:08:08.989Z,1013.27
2023-03-20T09:09:08.987Z,1013.28
2023-03-20T09:10:08.981Z,1013.28
2023-03-20T09:11:08.976Z,1013.31
2023-03-20T09:12:09.762Z,1013.28
2023-03-20T09:13:25.613Z,1013.26
2023-03-20T09:14:08.965Z,1013.27
2023-03-20T09:15:08.943Z,1013.24
2023-03-20T09:16:08.982Z,1013.22
2023-03-20T09:17:08.936Z,1013.25
2023-03-20T09:18:08.929Z,1013.25
2023-03-20T09:19:08.919Z,1013.28
2023-03-20T09:20:08.941Z,1013.29
2023-03-20T09:21:08.910Z,1013.25
2023-03-20T09:22:08.901Z,1013.31
2023-03-20T09:23:08.908Z,1013.30
2023-03-20T09:24:08.884Z,1013.29
2023-03-20T09:25:08.879Z,1013.30
2023-03-20T09:26:08.873Z,1013.28
2023-03-20T09:27:08.883Z,1013.25
2023-03-20T09:28:08.874Z,1013.24
2023-03-20T09:29:08.876Z,1013.28
2023-03-20T09:30:08.878Z,1013.29
2023-03-20T09:31:08.917Z,1013.28
2023-03-20T09:32:08.837Z,1013.28
2023-03-20T09:33:08.892Z,1013.27
2023-03-20T09:34:08.855Z,1013.29
2023-03-20T09:35:08.836Z,1013.30
2023-03-20T09:36:08.868Z,1013.27
2023-03-20T09:37:08.809Z,1013.29
2023-03-20T09:38:08.811Z,1013.27
2023-03-20T09:39:08.794Z,1013.31
2023-03-20T09:40:08.804Z,1013.30
2023-03-20T09:41:08.778Z,1013.29
2023-03-20T09:42:08.780Z,1013.31
2023-03-20T09:43:08.768Z,1013.30
2023-03-20T09:44:08.769Z,1013.30
2023-03-20T09:45:08.770Z,1013.27
2023-03-20T09:46:08.813Z,1013.33
2023-03-20T09:47:19.821Z,1013.31
2023-03-20T09:48:08.775Z,1013.30
2023-03-20T09:49:08.760Z,1013.30
2023-03-20T09:50:08.733Z,1013.27
2023-03-20T09:51:08.719Z,1013.26
2023-03-20T09:52:08.718Z,1013.29
2023-03-20T09:53:08.716Z,1013.29
2023-03-20T09:54:08.702Z,1013.26
2023-03-20T09:55:08.791Z,1013.26
2023-03-20T09:56:08.709Z,1013.29
2023-03-20T09:57:08.684Z,1013.24
2023-03-20T09:58:08.679Z,1013.28
2023-03-20T09:59:08.696Z,1013.25
2023-03-20T10:00:08.685Z,1013.28
2023-03-20T10:01:08.767Z,1013.32
2023-03-20T10:02:08.725Z,1013.33
2023-03-20T10:03:08.656Z,1013.31
2023-03-20T10:04:08.716Z,1013.31
2023-03-20T10:05:08.625Z,1013.32
2023-03-20T10:06:08.624Z,1013.31
2023-03-20T10:07:08.617Z,1013.27
2023-03-20T10:08:08.621Z,1013.31
2023-03-20T10:09:08.599Z,1013.28
2023-03-20T10:10:08.600Z,1013.26
2023-03-20T10:11:08.592Z,1013.24
2023-03-20T10:12:08.587Z,1013.23
2023-03-20T10:13:08.606Z,1013.25
2023-03-20T10:14:08.584Z,1013.23
2023-03-20T10:15:08.587Z,1013.24
2023-03-20T10:16:08.625Z,1013.23
2023-03-20T10:17:08.560Z,1013.19
2023-03-20T10:18:08.563Z,1013.27
2023-03-20T10:19:08.552Z,1013.24
2023-03-20T10:20:08.543Z,1013.20
2023-03-20T10:21:08.532Z,1013.20
2023-03-20T10:22:08.525Z,1013.18
2023-03-20T10:23:08.558Z,1013.16
2023-03-20T10:24:08.535Z,1013.15
2023-03-20T10:25:08.509Z,1013.13
2023-03-20T10:26:08.506Z,1013.15
2023-03-20T10:27:08.521Z,1013.12
2023-03-20T10:28:08.515Z,1013.11
2023-03-20T10:29:08.523Z,1013.07
2023-03-20T10:30:08.487Z,1013.08
2023-03-20T10:31:08.523Z,1013.10
2023-03-20T10:32:08.496Z,1013.17
2023-03-20T10:33:08.570Z,1013.15
2023-03-20T10:34:08.461Z,1013.11
2023-03-20T10:35:08.446Z,1013.12
2023-03-20T10:36:08.478Z,1013.10
2023-03-20T10:37:08.438Z,1013.12
2023-03-20T10:38:08.438Z,1013.11
2023-03-20T10:39:08.450Z,1013.16
2023-03-20T10:40:08.425Z,1013.11
2023-03-20T10:41:08.420Z,1013.19
2023-03-20T10:42:08.419Z,1013.11
2023-03-20T10:43:08.405Z,1013.10
2023-03-20T10:44:08.394Z,1013.09
2023-03-20T10:45:08.398Z,1013.11
2023-03-20T10:46:08.408Z,1013.09
2023-03-20T10:47:08.461Z,1013.11
2023-03-20T10:48:08.378Z,1013.05
2023-03-20T10:49:08.386Z,1013.04
2023-03-20T10:50:08.369Z,1013.02
2023-03-20T10:51:08.362Z,1013.03
2023-03-20T10:52:08.351Z,1013.04
2023-03-20T10:53:08.376Z,1013.07
2023-03-20T10:54:08.354Z,1013.08
2023-03-20T10:55:08.359Z,1013.11
2023-03-20T10:56:08.343Z,1013.10
2023-03-20T10:57:08.339Z,1013.06
2023-03-20T10:58:08.325Z,1013.05
2023-03-20T10:59:08.322Z,1013.12
2023-03-20T11:00:08.327Z,1013.07
2023-03-20T11:01:08.447Z,1013.08
2023-03-20T11:02:08.317Z,1013.15
2023-03-20T11:03:08.301Z,1013.12
2023-03-20T11:04:08.348Z,1013.10
2023-03-20T11:05:08.285Z,1013.07
2023-03-20T11:06:09.949Z,1013.08
2023-03-20T11:07:08.271Z,1013.08
2023-03-20T11:08:08.279Z,1013.10
2023-03-20T11:09:08.262Z,1013.10
2023-03-20T11:10:08.264Z,1013.10
2023-03-20T11:11:08.248Z,1013.08
2023-03-20T11:12:08.249Z,1013.04
2023-03-20T11:13:08.256Z,1013.03
2023-03-20T11:14:08.251Z,1013.03
2023-03-20T11:15:08.250Z,1013.04
2023-03-20T11:16:08.257Z,1013.06
2023-03-20T11:17:08.237Z,1013.08
2023-03-20T11:18:08.211Z,1013.05
2023-03-20T11:19:08.215Z,1013.04
2023-03-20T11:20:08.210Z,1013.06
2023-03-20T11:21:08.211Z,1013.07
2023-03-20T11:22:08.189Z,1013.05
2023-03-20T11:23:08.188Z,1013.04
2023-03-20T11:24:10.041Z,1013.02
2023-03-20T11:25:08.170Z,1013.02
2023-03-20T11:26:08.173Z,1013.01
2023-03-20T11:27:08.175Z,1013.01
2023-03-20T11:28:08.168Z,1013.03
2023-03-20T11:29:08.171Z,1012.98
2023-03-20T11:30:08.140Z,1013.00
2023-03-20T11:31:08.157Z,1012.96
2023-03-20T11:32:08.189Z,1012.94
2023-03-20T11:33:08.150Z,1012.93
2023-03-20T11:34:08.123Z,1012.93
2023-03-20T11:35:08.118Z,1012.88
2023-03-20T11:36:08.130Z,1012.88
2023-03-20T11:37:10.788Z,1012.86
2023-03-20T11:38:08.101Z,1012.89
2023-03-20T11:39:08.090Z,1012.88
2023-03-20T11:40:08.080Z,1012.89
2023-03-20T11:41:08.070Z,1012.92
2023-03-20T11:42:08.072Z,1012.91
2023-03-20T11:43:08.059Z,1012.88
2023-03-20T11:44:08.064Z,1012.86
2023-03-20T11:45:08.057Z,1012.84
2023-03-20T11:46:08.126Z,1012.84
2023-03-20T11:47:08.045Z,1012.79
2023-03-20T11:48:08.040Z,1012.82
2023-03-20T11:49:08.035Z,1012.84
2023-03-20T11:50:08.044Z,1012.81
2023-03-20T11:51:08.025Z,1012.77
2023-03-20T11:52:08.009Z,1012.78
2023-03-20T11:53:08.014Z,1012.75
2023-03-20T11:54:08.016Z,1012.71
2023-03-20T11:55:08.004Z,1012.73
2023-03-20T11:56:07.991Z,1012.73
2023-03-20T11:57:07.984Z,1012.72
2023-03-20T11:58:07.981Z,1012.71
2023-03-20T11:59:07.984Z,1012.70
2023-03-20T12:00:07.962Z,1012.71
2023-03-20T12:01:07.965Z,1012.68
2023-03-20T12:02:07.993Z,1012.64
2023-03-20T12:03:08.024Z,1012.65
2023-03-20T12:04:07.949Z,1012.64
2023-03-20T12:05:07.944Z,1012.64